createdAt,value
2018-05-21T00:00:13.757Z,1.97
2018-05-21T00:02:41.658Z,9.73
2018-05-21T00:05:09.563Z,9.33
2018-05-21T00:07:37.457Z,3.70
2018-05-21T00:10:05.347Z,3.30
2018-05-21T00:12:33.261Z,2.53
2018-05-21T00:15:01.152Z,2.97
2018-05-21T00:17:29.055Z,2.97
2018-05-21T00:19:56.946Z,5.10
2018-05-21T00:22:24.847Z,7.83
2018-05-21T00:24:52.742Z,3.67
2018-05-21T00:27:20.630Z,3.07
2018-05-21T00:29:48.526Z,2.60
2018-05-21T00:32:16.436Z,4.53
2018-05-21T00:34:44.366Z,2.43
2018-05-21T00:37:12.810Z,2.30
2018-05-21T00:39:40.695Z,3.10
2018-05-21T00:42:08.582Z,2.00
2018-05-21T00:44:36.494Z,3.63
2018-05-21T00:47:04.386Z,2.10
2018-05-21T00:49:32.502Z,3.40
2018-05-21T00:52:00.401Z,3.57
2018-05-21T00:54:28.305Z,4.57
2018-05-21T00:56:56.236Z,2.20
2018-05-21T00:59:24.142Z,3.67
2018-05-21T01:01:52.025Z,1.97
2018-05-21T01:04:19.909Z,2.33
2018-05-21T01:06:47.806Z,4.53
2018-05-21T01:09:15.699Z,2.23
2018-05-21T01:11:43.609Z,8.00
2018-05-21T01:14:11.510Z,1.97
2018-05-21T01:16:39.425Z,2.43
2018-05-21T01:19:07.314Z,2.43
2018-05-21T01:21:35.222Z,1.97
2018-05-21T01:24:03.111Z,4.23
2018-05-21T01:26:31.014Z,3.50
2018-05-21T01:28:58.922Z,2.63
2018-05-21T01:31:26.826Z,3.43
2018-05-21T01:33:54.729Z,3.13
2018-05-21T01:36:22.629Z,3.53
2018-05-21T01:38:50.545Z,3.00
2018-05-21T01:41:18.426Z,5.00
2018-05-21T01:43:46.342Z,3.43
2018-05-21T01:46:14.246Z,2.57
2018-05-21T01:48:42.149Z,3.07
2018-05-21T01:51:10.223Z,6.27
2018-05-21T01:53:38.113Z,2.10
2018-05-21T01:56:06.046Z,7.53
2018-05-21T01:58:33.933Z,9.00
2018-05-21T02:01:01.859Z,5.77
2018-05-21T02:03:29.745Z,2.70
2018-05-21T02:05:57.686Z,2.73
2018-05-21T02:08:25.723Z,4.63
2018-05-21T02:10:53.529Z,7.17
2018-05-21T02:13:21.426Z,2.20
2018-05-21T02:15:49.314Z,2.50
2018-05-21T02:18:17.222Z,3.10
2018-05-21T02:20:45.113Z,2.17
2018-05-21T02:23:13.029Z,3.60
2018-05-21T02:25:40.939Z,2.73
2018-05-21T02:28:08.825Z,3.43
2018-05-21T02:30:36.722Z,2.30
2018-05-21T02:33:04.656Z,4.13
2018-05-21T02:35:32.559Z,2.20
2018-05-21T02:38:00.450Z,3.30
2018-05-21T02:40:28.353Z,2.30
2018-05-21T02:42:56.234Z,2.20
2018-05-21T02:45:24.126Z,2.23
2018-05-21T02:47:52.011Z,2.17
2018-05-21T02:50:19.903Z,1.87
2018-05-21T02:52:48.046Z,2.23
2018-05-21T02:55:15.965Z,2.77
2018-05-21T02:57:43.873Z,2.27
2018-05-21T03:00:11.764Z,2.33
2018-05-21T03:02:39.670Z,3.70
2018-05-21T03:05:07.590Z,1.83
2018-05-21T03:07:35.498Z,2.07
2018-05-21T03:10:03.394Z,2.07
2018-05-21T03:12:31.292Z,2.97
2018-05-21T03:14:59.190Z,2.13
2018-05-21T03:17:27.081Z,3.07
2018-05-21T03:19:54.974Z,2.40
2018-05-21T03:22:22.862Z,3.13
2018-05-21T03:24:50.809Z,2.13
2018-05-21T03:27:18.689Z,2.23
2018-05-21T03:29:46.666Z,2.10
2018-05-21T03:32:14.553Z,3.60
2018-05-21T03:34:42.450Z,1.93
2018-05-21T03:37:10.354Z,1.80
2018-05-21T03:39:38.252Z,1.90
2018-05-21T03:42:06.146Z,2.90
2018-05-21T03:44:34.034Z,3.67
2018-05-21T03:47:01.930Z,1.90
2018-05-21T03:49:29.833Z,3.50
2018-05-21T03:51:57.731Z,2.77
2018-05-21T03:54:25.818Z,2.70
2018-05-21T03:56:53.703Z,2.37
2018-05-21T03:59:27.798Z,2.43
2018-05-21T04:02:01.752Z,2.33
2018-05-21T04:04:29.722Z,1.90
2018-05-21T04:06:57.572Z,2.53
2018-05-21T04:09:25.517Z,3.10
2018-05-21T04:11:53.529Z,4.50
2018-05-21T04:14:21.334Z,3.47
2018-05-21T04:16:49.242Z,2.70
2018-05-21T04:19:17.132Z,2.20
2018-05-21T04:21:45.025Z,3.83
2018-05-21T04:24:12.922Z,2.77
2018-05-21T04:26:40.842Z,1.97
2018-05-21T04:29:08.739Z,2.70
2018-05-21T04:31:36.633Z,2.23
2018-05-21T04:34:04.531Z,1.80
2018-05-21T04:36:32.459Z,2.10
2018-05-21T04:39:00.338Z,6.13
2018-05-21T04:41:28.225Z,2.63
2018-05-21T04:43:56.130Z,1.70
2018-05-21T04:46:24.017Z,4.53
2018-05-21T04:48:51.926Z,1.67
2018-05-21T04:51:19.821Z,3.60
2018-05-21T04:53:47.704Z,1.77
2018-05-21T04:56:15.861Z,1.70
2018-05-21T04:58:43.741Z,3.40
2018-05-21T05:01:11.647Z,3.43
2018-05-21T05:03:39.538Z,2.77
2018-05-21T05:06:07.422Z,2.27
2018-05-21T05:08:35.326Z,1.80
2018-05-21T05:11:03.252Z,4.43
2018-05-21T05:13:31.130Z,3.60
2018-05-21T05:15:59.017Z,7.30
2018-05-21T05:18:26.921Z,4.90
2018-05-21T05:20:54.822Z,1.70
2018-05-21T05:23:22.725Z,6.23
2018-05-21T05:25:50.652Z,2.30
2018-05-21T05:28:18.545Z,2.20
2018-05-21T05:30:46.441Z,2.23
2018-05-21T05:33:14.342Z,1.87
2018-05-21T05:35:42.245Z,2.33
2018-05-21T05:38:10.145Z,2.60
2018-05-21T05:40:38.046Z,2.13
2018-05-21T05:43:05.946Z,3.83
2018-05-21T05:45:33.854Z,6.97
2018-05-21T05:48:01.757Z,3.93
2018-05-21T05:50:29.648Z,2.90
2018-05-21T05:52:57.563Z,2.77
2018-05-21T05:55:25.452Z,3.10
2018-05-21T05:57:53.581Z,5.00
2018-05-21T06:00:21.473Z,3.80
2018-05-21T06:02:49.353Z,2.40
2018-05-21T06:05:17.257Z,1.90
2018-05-21T06:07:45.157Z,3.23
2018-05-21T06:10:13.046Z,3.20
2018-05-21T06:12:40.946Z,4.63
2018-05-21T06:15:08.862Z,2.77
2018-05-21T06:17:36.798Z,5.00
2018-05-21T06:20:04.756Z,6.03
2018-05-21T06:22:32.661Z,2.30
2018-05-21T06:25:00.565Z,5.67
2018-05-21T06:27:28.459Z,3.57
2018-05-21T06:29:56.372Z,2.37
2018-05-21T06:32:24.338Z,2.60
2018-05-21T06:34:52.245Z,3.33
2018-05-21T06:37:20.130Z,5.10
2018-05-21T06:39:48.030Z,3.67
2018-05-21T06:42:15.950Z,3.03
2018-05-21T06:44:43.850Z,3.87
2018-05-21T06:47:11.737Z,3.20
2018-05-21T06:49:39.634Z,3.20
2018-05-21T06:52:07.529Z,3.33
2018-05-21T06:54:35.414Z,2.20
2018-05-21T06:57:03.317Z,4.40
2018-05-21T06:59:31.388Z,4.60
2018-05-21T07:01:59.297Z,4.20
2018-05-21T07:04:27.197Z,6.13
2018-05-21T07:06:55.090Z,2.50
2018-05-21T07:09:22.998Z,3.30
2018-05-21T07:11:50.895Z,7.83
2018-05-21T07:14:18.782Z,7.23
2018-05-21T07:16:46.698Z,5.63
2018-05-21T07:19:14.599Z,8.80
2018-05-21T07:21:42.491Z,4.00
2018-05-21T07:24:10.417Z,4.50
2018-05-21T07:26:38.323Z,2.80
2018-05-21T07:29:06.232Z,3.53
2018-05-21T07:31:34.243Z,3.17
2018-05-21T07:34:02.061Z,4.40
2018-05-21T07:36:29.992Z,3.53
2018-05-21T07:38:57.864Z,6.83
2018-05-21T07:41:25.867Z,3.93
2018-05-21T07:43:53.757Z,6.73
2018-05-21T07:46:21.678Z,3.10
2018-05-21T07:48:49.590Z,2.30
2018-05-21T07:51:17.525Z,2.70
2018-05-21T07:53:45.395Z,4.57
2018-05-21T07:56:13.288Z,5.87
2018-05-21T07:58:41.186Z,7.57
2018-05-21T08:01:09.330Z,3.33
2018-05-21T08:03:37.229Z,5.03
2018-05-21T08:06:05.137Z,4.70
2018-05-21T08:08:33.029Z,3.07
2018-05-21T08:11:00.933Z,2.60
2018-05-21T08:13:28.833Z,5.03
2018-05-21T08:15:56.729Z,7.50
2018-05-21T08:18:24.621Z,3.47
2018-05-21T08:20:52.533Z,2.50
2018-05-21T08:23:20.430Z,3.00
2018-05-21T08:25:48.325Z,10.97
2018-05-21T08:28:16.224Z,2.63
2018-05-21T08:30:44.154Z,3.33
2018-05-21T08:33:12.054Z,5.03
2018-05-21T08:35:39.958Z,7.50
2018-05-21T08:38:07.834Z,2.70
2018-05-21T08:40:35.734Z,6.23
2018-05-21T08:43:03.662Z,5.27
2018-05-21T08:45:31.566Z,3.97
2018-05-21T08:47:59.474Z,3.53
2018-05-21T08:50:27.395Z,4.93
2018-05-21T08:52:55.321Z,5.67
2018-05-21T08:55:23.233Z,7.20
2018-05-21T08:57:51.117Z,5.43
2018-05-21T09:00:19.075Z,3.97
2018-05-21T09:02:47.162Z,4.47
2018-05-21T09:05:15.070Z,6.50
2018-05-21T09:07:42.990Z,5.43
2018-05-21T09:10:10.908Z,4.20
2018-05-21T09:12:38.774Z,2.30
2018-05-21T09:15:06.670Z,7.53
2018-05-21T09:17:34.574Z,3.13
2018-05-21T09:20:02.477Z,4.83
2018-05-21T09:22:30.450Z,7.43
2018-05-21T09:24:58.258Z,2.80
2018-05-21T09:27:26.178Z,6.37
2018-05-21T09:29:54.068Z,8.40
2018-05-21T09:32:21.994Z,2.57
2018-05-21T09:34:49.881Z,5.30
2018-05-21T09:37:17.779Z,2.50
2018-05-21T09:39:45.678Z,3.57
2018-05-21T09:42:13.578Z,5.27
2018-05-21T09:44:41.490Z,5.73
2018-05-21T09:47:09.375Z,7.70
2018-05-21T09:49:37.281Z,7.93
2018-05-21T09:52:05.188Z,2.47
2018-05-21T09:54:33.085Z,3.93
2018-05-21T09:57:00.969Z,5.27
2018-05-21T09:59:29.174Z,5.03
2018-05-21T10:01:57.084Z,9.07
2018-05-21T10:04:25.178Z,2.93
2018-05-21T10:06:53.069Z,11.47
2018-05-21T10:09:21.093Z,6.63
2018-05-21T10:11:49.028Z,3.33
2018-05-21T10:14:16.993Z,5.00
2018-05-21T10:16:44.935Z,2.83
2018-05-21T10:19:12.826Z,4.63
2018-05-21T10:21:40.746Z,2.93
2018-05-21T10:24:08.640Z,3.17
2018-05-21T10:26:36.526Z,2.00
2018-05-21T10:29:04.431Z,2.33
2018-05-21T10:31:32.333Z,7.13
2018-05-21T10:34:00.233Z,5.23
2018-05-21T10:36:28.121Z,6.53
2018-05-21T10:38:56.021Z,3.30
2018-05-21T10:41:23.905Z,3.73
2018-05-21T10:43:51.812Z,2.30
2018-05-21T10:46:19.696Z,5.13
2018-05-21T10:48:48.241Z,8.53
2018-05-21T10:51:16.171Z,2.50
2018-05-21T10:53:44.054Z,4.73
2018-05-21T10:56:12.370Z,2.47
2018-05-21T10:58:40.282Z,2.00
2018-05-21T11:01:08.185Z,3.30
2018-05-21T11:03:36.082Z,7.13
2018-05-21T11:06:04.240Z,2.57
2018-05-21T11:08:32.139Z,2.40
2018-05-21T11:11:00.057Z,5.90
2018-05-21T11:13:27.951Z,2.40
2018-05-21T11:15:55.912Z,4.30
2018-05-21T11:18:23.891Z,3.53
2018-05-21T11:20:51.793Z,4.63
2018-05-21T11:23:19.753Z,13.50
2018-05-21T11:25:47.649Z,2.20
2018-05-21T11:28:15.553Z,3.20
2018-05-21T11:30:43.478Z,2.27
2018-05-21T11:33:11.374Z,2.70
2018-05-21T11:35:39.269Z,5.50
2018-05-21T11:38:07.194Z,2.50
2018-05-21T11:40:35.117Z,2.53
2018-05-21T11:43:03.050Z,2.73
2018-05-21T11:45:30.994Z,4.33
2018-05-21T11:47:58.909Z,6.63
2018-05-21T11:50:26.805Z,5.80
2018-05-21T11:52:54.717Z,2.33
2018-05-21T11:55:22.609Z,5.20
2018-05-21T11:57:50.494Z,3.60
2018-05-21T12:00:18.448Z,5.90
2018-05-21T12:02:46.443Z,6.37
2018-05-21T12:05:14.262Z,2.27
2018-05-21T12:07:42.409Z,3.60
2018-05-21T12:10:10.215Z,3.73
2018-05-21T12:12:38.110Z,5.80
2018-05-21T12:15:06.010Z,7.80
2018-05-21T12:17:33.905Z,6.63
2018-05-21T12:20:01.841Z,2.93
2018-05-21T12:22:29.822Z,5.67
2018-05-21T12:24:57.635Z,2.50
2018-05-21T12:27:25.553Z,7.97
2018-05-21T12:29:53.438Z,3.30
2018-05-21T12:32:21.355Z,3.63
2018-05-21T12:34:49.255Z,2.03
2018-05-21T12:37:17.209Z,4.57
2018-05-21T12:39:45.105Z,3.30
2018-05-21T12:42:13.010Z,3.73
2018-05-21T12:44:40.914Z,2.17
2018-05-21T12:47:08.825Z,3.90
2018-05-21T12:49:36.715Z,3.57
2018-05-21T12:52:04.621Z,9.37
2018-05-21T12:54:32.521Z,5.27
2018-05-21T12:57:00.426Z,7.50
2018-05-21T12:59:28.358Z,3.57
2018-05-21T13:01:56.249Z,6.00
2018-05-21T13:04:24.145Z,2.80
2018-05-21T13:06:52.044Z,2.13
2018-05-21T13:09:20.177Z,2.70
2018-05-21T13:11:48.083Z,2.20
2018-05-21T13:14:15.985Z,4.80
2018-05-21T13:16:43.890Z,5.53
2018-05-21T13:19:11.861Z,5.33
2018-05-21T13:21:39.830Z,5.83
2018-05-21T13:24:07.823Z,3.53
2018-05-21T13:26:35.622Z,5.17
2018-05-21T13:29:03.567Z,4.43
2018-05-21T13:31:31.461Z,3.47
2018-05-21T13:33:59.354Z,3.13
2018-05-21T13:36:27.259Z,6.37
2018-05-21T13:38:55.157Z,4.80
2018-05-21T13:41:23.077Z,3.73
2018-05-21T13:43:51.034Z,3.57
2018-05-21T13:46:18.937Z,4.03
2018-05-21T13:48:46.821Z,2.53
2018-05-21T13:51:14.709Z,2.63
2018-05-21T13:53:42.613Z,2.50
2018-05-21T13:56:10.563Z,2.93
2018-05-21T13:58:38.426Z,8.83
2018-05-21T14:01:06.374Z,16.70
2018-05-21T14:03:34.298Z,4.00
2018-05-21T14:06:02.283Z,3.00
2018-05-21T14:08:30.175Z,2.67
2018-05-21T14:10:58.514Z,4.03
2018-05-21T14:13:26.417Z,3.97
2018-05-21T14:15:54.318Z,1.90
2018-05-21T14:18:22.234Z,2.53
2018-05-21T14:20:50.121Z,4.40
2018-05-21T14:23:18.038Z,5.57
2018-05-21T14:25:45.937Z,2.40
2018-05-21T14:28:13.833Z,5.90
2018-05-21T14:30:41.734Z,7.73
2018-05-21T14:33:09.673Z,4.30
2018-05-21T14:35:37.554Z,4.37
2018-05-21T14:38:05.457Z,4.17
2018-05-21T14:40:33.358Z,3.53
2018-05-21T14:43:01.257Z,5.63
2018-05-21T14:45:29.164Z,4.10
2018-05-21T14:47:57.066Z,4.43
2018-05-21T14:50:25.009Z,5.37
2018-05-21T14:52:52.933Z,3.50
2018-05-21T14:55:20.849Z,3.30
2018-05-21T14:57:48.745Z,3.30
2018-05-21T15:00:16.641Z,4.20
2018-05-21T15:02:44.533Z,6.57
2018-05-21T15:05:12.486Z,2.90
2018-05-21T15:07:40.449Z,2.50
2018-05-21T15:10:08.351Z,2.63
2018-05-21T15:12:36.434Z,4.07
2018-05-21T15:15:04.341Z,3.97
2018-05-21T15:17:32.232Z,7.07
2018-05-21T15:20:00.126Z,2.57
2018-05-21T15:22:28.040Z,7.43
2018-05-21T15:24:55.974Z,13.63
2018-05-21T15:27:23.889Z,42.10
2018-05-21T15:29:51.790Z,258.20
2018-05-21T15:32:19.693Z,264.90
2018-05-21T15:34:47.618Z,97.50
2018-05-21T15:37:15.538Z,206.73
2018-05-21T15:39:43.422Z,69.50
2018-05-21T15:42:11.309Z,202.83
2018-05-21T15:44:39.197Z,47.10
2018-05-21T15:47:07.134Z,73.63
2018-05-21T15:49:35.021Z,49.23
2018-05-21T15:52:02.948Z,60.17
2018-05-21T15:54:30.850Z,78.10
2018-05-21T15:56:58.733Z,65.83
2018-05-21T15:59:26.617Z,132.73
2018-05-21T16:01:54.514Z,152.00
2018-05-21T16:04:22.406Z,37.57
2018-05-21T16:06:50.323Z,114.37
2018-05-21T16:09:18.386Z,104.30
2018-05-21T16:11:46.221Z,59.33
2018-05-21T16:14:14.350Z,28.70
2018-05-21T16:16:42.245Z,13.67
2018-05-21T16:19:10.144Z,14.07
2018-05-21T16:21:38.042Z,13.43
2018-05-21T16:24:05.942Z,8.67
2018-05-21T16:26:33.838Z,8.60
2018-05-21T16:29:01.746Z,4.00
2018-05-21T16:31:29.637Z,8.57
2018-05-21T16:33:57.539Z,10.17
2018-05-21T16:36:25.446Z,5.73
2018-05-21T16:38:53.351Z,10.20
2018-05-21T16:41:21.264Z,5.37
2018-05-21T16:43:49.139Z,5.77
2018-05-21T16:46:17.038Z,5.90
2018-05-21T16:48:44.938Z,3.13
2018-05-21T16:51:12.830Z,12.10
2018-05-21T16:53:40.735Z,6.50
2018-05-21T16:56:08.654Z,6.30
2018-05-21T16:58:36.562Z,3.43
2018-05-21T17:01:04.507Z,6.20
2018-05-21T17:03:32.406Z,3.33
2018-05-21T17:06:00.295Z,4.00
2018-05-21T17:08:28.189Z,4.70
2018-05-21T17:10:56.098Z,4.10
2018-05-21T17:13:23.998Z,2.73
2018-05-21T17:15:52.090Z,5.80
2018-05-21T17:18:19.986Z,6.20
2018-05-21T17:20:47.879Z,6.70
2018-05-21T17:23:15.781Z,3.77
2018-05-21T17:25:43.689Z,6.90
2018-05-21T17:28:11.595Z,4.30
2018-05-21T17:30:39.498Z,3.90
2018-05-21T17:33:07.402Z,7.37
2018-05-21T17:35:35.324Z,9.47
2018-05-21T17:38:03.218Z,12.53
2018-05-21T17:40:31.159Z,9.67
2018-05-21T17:42:59.057Z,4.70
2018-05-21T17:45:26.966Z,3.20
2018-05-21T17:47:54.879Z,3.60
2018-05-21T17:50:22.776Z,4.83
2018-05-21T17:52:50.676Z,3.53
2018-05-21T17:55:18.581Z,2.80
2018-05-21T17:57:46.579Z,6.20
2018-05-21T18:00:14.414Z,6.03
2018-05-21T18:02:42.313Z,3.50
2018-05-21T18:05:10.214Z,8.53
2018-05-21T18:07:38.122Z,9.43
2018-05-21T18:10:06.030Z,3.73
2018-05-21T18:12:34.029Z,5.47
2018-05-21T18:15:01.873Z,4.03
2018-05-21T18:17:29.913Z,6.30
2018-05-21T18:19:57.797Z,6.80
2018-05-21T18:22:25.758Z,5.17
2018-05-21T18:24:53.661Z,6.40
2018-05-21T18:27:21.553Z,7.50
2018-05-21T18:29:49.490Z,9.13
2018-05-21T18:32:17.379Z,4.43
2018-05-21T18:34:45.277Z,7.03
2018-05-21T18:37:13.194Z,5.50
2018-05-21T18:39:41.094Z,2.93
2018-05-21T18:42:08.985Z,4.47
2018-05-21T18:44:36.885Z,6.67
2018-05-21T18:47:04.786Z,3.50
2018-05-21T18:49:32.690Z,5.77
2018-05-21T18:52:00.586Z,5.70
2018-05-21T18:54:28.483Z,9.13
2018-05-21T18:56:56.374Z,5.87
2018-05-21T18:59:24.263Z,3.93
2018-05-21T19:01:52.145Z,3.90
2018-05-21T19:04:20.030Z,10.43
2018-05-21T19:06:47.927Z,8.37
2018-05-21T19:09:15.831Z,3.23
2018-05-21T19:11:43.722Z,4.50
2018-05-21T19:14:11.614Z,6.00
2018-05-21T19:16:39.510Z,4.27
2018-05-21T19:19:07.642Z,5.33
2018-05-21T19:21:35.541Z,10.00
2018-05-21T19:24:03.436Z,4.03
2018-05-21T19:26:31.338Z,12.57
2018-05-21T19:28:59.227Z,10.27
2018-05-21T19:31:27.117Z,5.53
2018-05-21T19:33:55.014Z,7.43
2018-05-21T19:36:22.934Z,9.03
2018-05-21T19:38:50.856Z,3.70
2018-05-21T19:41:18.737Z,5.67
2018-05-21T19:43:46.642Z,13.60
2018-05-21T19:46:14.541Z,7.40
2018-05-21T19:48:42.463Z,4.73
2018-05-21T19:51:11.952Z,4.90
2018-05-21T19:53:40.913Z,8.63
2018-05-21T19:56:08.826Z,7.53
2018-05-21T19:58:39.209Z,3.87
2018-05-21T20:01:08.014Z,5.60
2018-05-21T20:03:35.936Z,6.93
2018-05-21T20:06:04.461Z,2.97
2018-05-21T20:08:32.774Z,6.57
2018-05-21T20:11:00.691Z,2.80
2018-05-21T20:13:28.588Z,5.40
2018-05-21T20:15:57.274Z,7.07
2018-05-21T20:18:31.053Z,9.30
2018-05-21T20:20:59.105Z,2.67
2018-05-21T20:23:27.006Z,2.00
2018-05-21T20:26:51.599Z,8.63
2018-05-21T20:29:19.491Z,4.70
2018-05-21T20:31:47.397Z,6.07
2018-05-21T20:34:15.293Z,14.20
2018-05-21T20:36:43.221Z,5.30
2018-05-21T20:39:11.125Z,8.50
2018-05-21T20:41:39.018Z,11.80
2018-05-21T20:44:06.907Z,4.93
2018-05-21T20:46:34.800Z,3.50
2018-05-21T20:49:02.742Z,5.63
2018-05-21T20:51:30.658Z,6.10
2018-05-21T20:53:58.553Z,4.93
2018-05-21T20:56:26.471Z,6.80
2018-05-21T20:58:54.447Z,10.37
2018-05-21T21:01:22.393Z,11.60
2018-05-21T21:03:50.253Z,6.73
2018-05-21T21:06:18.147Z,3.53
2018-05-21T21:08:46.066Z,3.00
2018-05-21T21:11:13.954Z,6.13
2018-05-21T21:13:41.863Z,3.47
2018-05-21T21:16:09.781Z,11.33
2018-05-21T21:18:37.666Z,3.37
2018-05-21T21:21:05.784Z,2.60
2018-05-21T21:23:33.686Z,4.67
2018-05-21T21:26:01.590Z,4.20
2018-05-21T21:28:29.518Z,4.13
2018-05-21T21:30:57.413Z,9.17
2018-05-21T21:33:25.310Z,3.20
2018-05-21T21:35:53.214Z,4.03
2018-05-21T21:38:21.099Z,6.30
2018-05-21T21:40:49.021Z,8.30
2018-05-21T21:43:16.922Z,6.93
2018-05-21T21:45:44.833Z,7.40
2018-05-21T21:48:12.758Z,5.50
2018-05-21T21:50:40.657Z,2.27
2018-05-21T21:53:08.546Z,7.50
2018-05-21T21:55:36.462Z,5.23
2018-05-21T21:58:04.353Z,5.63
2018-05-21T22:00:32.254Z,2.93
2018-05-21T22:03:00.142Z,5.20
2018-05-21T22:05:28.037Z,2.57
2018-05-21T22:07:56.011Z,6.90
2018-05-21T22:10:23.949Z,6.47
2018-05-21T22:12:51.847Z,3.43
2018-05-21T22:15:19.745Z,6.83
2018-05-21T22:17:47.683Z,4.77
2018-05-21T22:20:15.629Z,4.60
2018-05-21T22:22:43.705Z,4.90
2018-05-21T22:25:11.618Z,6.73
2018-05-21T22:27:39.681Z,8.00
2018-05-21T22:30:07.574Z,4.63
2018-05-21T22:32:35.489Z,3.87
2018-05-21T22:35:03.460Z,6.67
2018-05-21T22:37:31.349Z,2.60
2018-05-21T22:39:59.234Z,4.10
2018-05-21T22:42:27.730Z,3.60
2018-05-21T22:44:55.654Z,5.67
2018-05-21T22:47:23.608Z,3.57
2018-05-21T22:49:51.451Z,3.13
2018-05-21T22:52:19.342Z,4.20
2018-05-21T22:54:47.240Z,3.00
2018-05-21T22:57:15.146Z,4.03
2018-05-21T22:59:43.042Z,8.67
2018-05-21T23:02:10.938Z,5.00
2018-05-21T23:04:38.830Z,4.10
2018-05-21T23:07:06.722Z,2.63
2018-05-21T23:09:34.609Z,2.33
2018-05-21T23:12:02.497Z,2.60
2018-05-21T23:14:30.429Z,5.87
2018-05-21T23:16:58.295Z,8.03
2018-05-21T23:19:26.198Z,2.60
2018-05-21T23:21:54.090Z,2.57
2018-05-21T23:24:22.141Z,4.67
2018-05-21T23:26:50.035Z,4.70
2018-05-21T23:29:17.922Z,10.03
2018-05-21T23:31:45.801Z,2.73
2018-05-21T23:34:13.698Z,5.30
2018-05-21T23:36:41.598Z,3.10
2018-05-21T23:39:09.495Z,5.73
2018-05-21T23:41:37.394Z,2.40
2018-05-21T23:44:05.303Z,4.33
2018-05-21T23:46:33.206Z,2.43
2018-05-21T23:49:01.102Z,4.10
2018-05-21T23:51:28.998Z,3.50
2018-05-21T23:53:56.894Z,6.27
2018-05-21T23:56:24.774Z,5.90
2018-05-21T23:58:52.673Z,4.10
